Corpus Christi Naval Air Station/Truax Field
KNGP : now visible

Airfield :











YOU CAN JOIN US ON...

 
LOGIN :

Register | Disclaimer

   EN    FR    IT 

 









Legend :    VFR   Marginal VFR   IFR   Intensive IFR   Very Intensive IFR
Visi :
Ceiling :
>= 8 km
>= 3000ft
5 to 8 km
1000 to 3000 ft
1500m to 5 km
500 to 1000 ft
800 to 1500m
200 to 500 ft
< 800m
< 200 ft
Symbols :   Thunderstorms  Fog  Heavy snow  Heavy precipitations  Wind > 20 kt






- Airport Elevation : 18 ft


KNGP - Corpus Christi Naval Air Station/Truax Field

CURRENT METAR :
  • 100556Z AUTO 08010KT 10SM CLR 22/21 A2986 RMK AO2 RAE15 SLP112 P0000 60000 T02220211 10250 20222 402890222 51001

EXPIRED METARs :
  • 100456Z AUTO 04020KT 10SM -RA FEW014 23/22 A2986 RMK AO2 PK WND 02028/0428 RAB01 SLP111 P0000 T02280217
  • 100408Z AUTO 03015KT 4SM -RA BR FEW007 BKN020 BKN041 24/24 A2988 RMK AO2 RAB01 P0000 T02440244
  • 100356Z 02015KT 4SM BR FEW007 SCT012 BKN033 BKN130 OVC230 24/24 A2988 RMK AO2 WSHFT 0243 SLP118 RAE10 SVR T2 SET P0000 T02440244

TAF COR TAF KNGP
Valid from the 09 at 23:00 until the 10 at 23:00 UTC


0923/1023 13010KT 8000 BR FEW009 SCT011 BKN170 OVC250 QNH2973INS
TEMPO 1000/1001 10008KT 6000 BR BKN009
FM100100 09008KT 6000 BR VCTS FEW007 BKN009CB BKN020 OVC140 641309 642203 QNH2976INS
TEMPO 1002/1008 VRB40G55KT 1200 +TSRAGR BR BKN006 OVC010CB
FM100800 01011KT 8000 BR VCTS SCT008 BKN012CB BKN035 OVC100 641309 642203 QNH2990INS
FM101000 02010KT 8000 BR VCSH BKN007 OVC014 641309 642203 QNH2993INS
TEMPO 1010/1015 4800 -SHRA BR OVC006
FM101600 03013G18KT 9999 VCTS FEW008 BKN014CB OVC025 641309 642203 QNH2885INS
TEMPO 1016/1019 4800 SHRA SCT008 OVC012CB
FM101900 06015G21KT 9999 VCSH FEW010 BKN018 BKN040 OVC250 600000 QNH2990INS AUTOMATED SENSOR METWATCH 0904 TIL 0911 T21/1011Z T24/1021Z COR 2303 FN00003



MET'MAP, your aeronautical weather chart ! - Copyright ORBIFLY December 2007 - Disclaimer

ORBIFLY MET'MAP TEAM :

Programming & Development : Alexandra Zaïnal
Concept & original design : Baudouin d'Aumeries
Assistance for programming : Marc-Olivier Méhu
Technical & hardware support : Manuel Goepfert

Contact : metmap@orbifly.com




SOURCES & CREDITS :

   NOAA       Earth
Advisory